Time;durP1;ratioP1;P1;durP2;ratioP2;P2;SDS_P1;SDS_P2;PMS_P1;PMS_P2;Temp;Humidity;BMP_temperature;BMP_pressure;BME280_temperature;BME280_humidity;BME280_pressure;Samples;Min_cycle;Max_cycle;Signal;HPM_P1;HPM_P2
2023/05/23 00:01:13;;;;;;;24.37;19.67;;;16.00;99.90;;;;;;5009331;28;20257;-56
2023/05/23 00:03:39;;;;;;;26.93;21.57;;;16.00;99.90;;;;;;5013654;28;20190;-56
2023/05/23 00:06:05;;;;;;;20.40;18.07;;;16.00;99.90;;;;;;5007925;28;21064;-56
2023/05/23 00:08:31;;;;;;;22.43;20.13;;;16.10;99.90;;;;;;5012339;28;20443;-57
2023/05/23 00:10:57;;;;;;;25.73;21.47;;;16.00;99.90;;;;;;5000619;28;20485;-56
2023/05/23 00:13:22;;;;;;;28.70;24.10;;;16.10;99.90;;;;;;5009555;28;20634;-55
2023/05/23 00:15:48;;;;;;;33.70;25.27;;;16.00;99.90;;;;;;5008230;28;20274;-57
2023/05/23 00:18:15;;;;;;;36.00;29.03;;;16.00;99.90;;;;;;5009709;28;20195;-57
2023/05/23 00:20:41;;;;;;;41.20;32.53;;;16.10;99.90;;;;;;5008174;28;20183;-56
2023/05/23 00:23:12;;;;;;;36.20;30.10;;;16.10;99.90;;;;;;5006540;28;20508;-56
2023/05/23 00:25:39;;;;;;;34.13;29.30;;;16.10;99.90;;;;;;5006509;28;20803;-57
2023/05/23 00:28:05;;;;;;;39.07;31.33;;;16.00;99.90;;;;;;5001866;28;20446;-56
2023/05/23 00:30:32;;;;;;;41.13;33.60;;;16.10;99.90;;;;;;5003838;28;20442;-57
2023/05/23 00:32:59;;;;;;;35.00;30.30;;;16.10;99.90;;;;;;5008409;28;20510;-56
2023/05/23 00:35:25;;;;;;;36.30;30.80;;;16.10;99.90;;;;;;5010340;28;20446;-57
2023/05/23 00:37:51;;;;;;;35.20;28.17;;;16.10;99.90;;;;;;5010835;28;20456;-55
2023/05/23 00:40:21;;;;;;;33.80;26.87;;;16.10;99.90;;;;;;5004389;28;21025;-56
2023/05/23 00:42:47;;;;;;;32.30;27.07;;;16.10;99.90;;;;;;5008598;28;20613;-56
2023/05/23 00:45:13;;;;;;;30.77;24.37;;;16.10;99.90;;;;;;5003617;28;21036;-56
2023/05/23 00:47:39;;;;;;;30.20;25.00;;;16.00;99.90;;;;;;5004043;28;21964;-56
2023/05/23 00:50:07;;;;;;;27.80;23.63;;;16.00;99.90;;;;;;5009039;28;20433;-56
2023/05/23 00:52:33;;;;;;;32.90;26.07;;;16.00;99.90;;;;;;5008963;28;20979;-56
2023/05/23 00:54:59;;;;;;;26.03;21.07;;;16.00;99.90;;;;;;5007496;28;20487;-57
2023/05/23 00:57:24;;;;;;;25.83;22.93;;;16.00;99.90;;;;;;5006921;28;20969;-57
2023/05/23 00:59:52;;;;;;;26.17;23.40;;;16.00;99.90;;;;;;5005485;28;20205;-55
2023/05/23 01:02:17;;;;;;;27.83;22.80;;;16.00;99.90;;;;;;5002573;28;20277;-56
2023/05/23 01:04:43;;;;;;;26.20;22.77;;;16.00;99.90;;;;;;5003835;28;20480;-56
2023/05/23 01:07:09;;;;;;;25.03;22.17;;;15.90;99.90;;;;;;5009202;28;20194;-57
2023/05/23 01:09:35;;;;;;;27.60;22.20;;;15.90;99.90;;;;;;5009289;28;20720;-56
2023/05/23 01:12:18;;;;;;;24.20;21.60;;;15.90;99.90;;;;;;5008775;28;20573;-54
2023/05/23 01:15:07;;;;;;;24.10;21.50;;;15.90;99.90;;;;;;5004288;28;20237;-58
2023/05/23 01:17:58;;;;;;;23.90;20.83;;;15.90;99.90;;;;;;5003667;28;20445;-58
2023/05/23 01:20:30;;;;;;;23.63;20.57;;;15.90;99.90;;;;;;5007126;28;20445;-57
2023/05/23 01:23:01;;;;;;;21.30;19.03;;;15.90;99.90;;;;;;5003003;28;20814;-56
2023/05/23 01:26:07;;;;;;;22.37;19.90;;;15.90;99.90;;;;;;5010019;28;20488;-55
2023/05/23 01:28:39;;;;;;;21.53;19.23;;;15.90;99.90;;;;;;5008873;28;22031;-56
2023/05/23 01:31:07;;;;;;;20.67;17.87;;;15.90;99.90;;;;;;5004710;28;20476;-57
2023/05/23 01:33:33;;;;;;;23.63;21.00;;;15.90;99.90;;;;;;5008030;28;20823;-56
2023/05/23 01:36:04;;;;;;;24.03;20.77;;;16.00;99.90;;;;;;5002504;28;20545;-57
2023/05/23 01:38:29;;;;;;;29.43;21.10;;;16.00;99.90;;;;;;5003467;28;20446;-56
2023/05/23 01:40:55;;;;;;;25.03;20.50;;;16.00;99.90;;;;;;5006593;28;20429;-56
2023/05/23 01:43:23;;;;;;;24.83;21.87;;;16.00;99.90;;;;;;5011748;28;20650;-57
2023/05/23 01:45:50;;;;;;;26.20;23.13;;;16.00;99.90;;;;;;5007152;28;20234;-57
2023/05/23 01:48:17;;;;;;;37.77;29.60;;;16.00;99.90;;;;;;5006850;28;20441;-56
2023/05/23 01:50:46;;;;;;;43.70;33.00;;;16.00;99.90;;;;;;5000843;28;20427;-56
2023/05/23 01:53:20;;;;;;;42.67;35.13;;;16.00;99.90;;;;;;5004314;28;20530;-55
2023/05/23 01:55:46;;;;;;;49.50;41.20;;;16.00;99.90;;;;;;5001005;28;20489;-54
2023/05/23 01:58:12;;;;;;;54.30;43.83;;;15.90;99.90;;;;;;5005910;28;20983;-56
2023/05/23 02:00:37;;;;;;;52.40;42.70;;;15.80;99.90;;;;;;5009870;28;20483;-56
2023/05/23 02:03:03;;;;;;;53.83;44.33;;;15.70;99.90;;;;;;5009295;28;20526;-56
2023/05/23 02:05:29;;;;;;;57.60;46.90;;;15.60;99.90;;;;;;5005435;28;20209;-56
2023/05/23 02:07:55;;;;;;;68.20;52.13;;;15.50;99.90;;;;;;5007161;28;20181;-55
2023/05/23 02:10:21;;;;;;;64.03;50.57;;;15.40;99.90;;;;;;5006193;28;20198;-56
2023/05/23 02:12:47;;;;;;;71.50;54.47;;;15.30;99.90;;;;;;5010535;28;20946;-56
2023/05/23 02:15:12;;;;;;;77.00;56.83;;;15.20;99.90;;;;;;5012496;28;20189;-56
2023/05/23 02:17:40;;;;;;;85.43;57.40;;;15.10;99.90;;;;;;5010253;28;20192;-57
2023/05/23 02:20:06;;;;;;;87.57;55.87;;;15.10;99.90;;;;;;5008008;28;20653;-56
2023/05/23 02:22:32;;;;;;;84.67;56.70;;;15.00;99.90;;;;;;5010048;28;20524;-55
2023/05/23 02:24:58;;;;;;;83.40;56.73;;;15.00;99.90;;;;;;5005927;28;20522;-55
2023/05/23 02:27:23;;;;;;;96.40;60.50;;;14.90;99.90;;;;;;5009974;28;20460;-56
2023/05/23 02:29:49;;;;;;;90.27;58.90;;;14.90;99.90;;;;;;5015281;28;20182;-56
2023/05/23 02:32:14;;;;;;;88.63;57.10;;;14.80;99.90;;;;;;5011330;28;20200;-54
2023/05/23 02:34:40;;;;;;;89.90;54.93;;;14.80;99.90;;;;;;5010775;28;20562;-55
2023/05/23 02:37:06;;;;;;;89.40;56.63;;;14.80;99.90;;;;;;5012576;28;20189;-55
2023/05/23 02:39:34;;;;;;;98.03;56.87;;;14.70;99.90;;;;;;5005467;28;20200;-55
2023/05/23 02:42:00;;;;;;;96.30;57.63;;;14.70;99.90;;;;;;5011819;28;20931;-55
2023/05/23 02:44:26;;;;;;;100.63;62.67;;;14.70;99.90;;;;;;5005796;28;20450;-55
2023/05/23 02:46:52;;;;;;;99.90;58.00;;;14.70;99.90;;;;;;5010465;28;20488;-56
2023/05/23 02:49:17;;;;;;;112.27;60.60;;;14.70;99.90;;;;;;5013997;28;20227;-56
2023/05/23 02:51:43;;;;;;;111.70;62.00;;;14.70;99.90;;;;;;5010530;28;20184;-55
2023/05/23 02:54:08;;;;;;;104.63;56.37;;;14.70;99.90;;;;;;5007509;28;20192;-55
2023/05/23 02:56:34;;;;;;;108.87;56.97;;;14.70;99.90;;;;;;5004441;28;20327;-55
2023/05/23 02:58:59;;;;;;;100.73;54.57;;;14.70;99.90;;;;;;5004897;28;20218;-55
2023/05/23 03:01:25;;;;;;;103.10;57.37;;;14.60;99.90;;;;;;5010933;28;20654;-55
2023/05/23 03:03:50;;;;;;;97.93;55.13;;;14.60;99.90;;;;;;5010380;28;20185;-56
2023/05/23 03:06:16;;;;;;;101.93;55.83;;;14.60;99.90;;;;;;5012260;28;20220;-55
2023/05/23 03:08:42;;;;;;;98.23;54.97;;;14.60;99.90;;;;;;5010413;28;20759;-55
2023/05/23 03:11:08;;;;;;;95.40;53.40;;;14.50;99.90;;;;;;5003478;28;20535;-55
2023/05/23 03:13:34;;;;;;;89.87;51.50;;;14.50;99.90;;;;;;5004673;28;20447;-55
2023/05/23 03:16:00;;;;;;;90.47;50.20;;;14.40;99.90;;;;;;5006663;28;20194;-54
2023/05/23 03:18:25;;;;;;;85.30;49.30;;;14.40;99.90;;;;;;5008607;28;20443;-55
2023/05/23 03:20:51;;;;;;;82.70;48.87;;;14.30;99.90;;;;;;5008229;28;20570;-55
2023/05/23 03:23:16;;;;;;;78.47;49.03;;;14.30;99.90;;;;;;5010310;28;20194;-55
2023/05/23 03:25:42;;;;;;;85.90;47.50;;;14.30;99.90;;;;;;5013417;28;20321;-56
2023/05/23 03:28:08;;;;;;;79.43;48.53;;;14.30;99.90;;;;;;5009237;28;20639;-56
2023/05/23 03:30:33;;;;;;;87.00;47.53;;;14.30;99.90;;;;;;5007346;28;21442;-55
2023/05/23 03:33:00;;;;;;;82.60;46.57;;;14.30;99.90;;;;;;5006565;28;20246;-56
2023/05/23 03:35:26;;;;;;;81.43;46.03;;;14.20;99.90;;;;;;5003318;28;20192;-56
2023/05/23 03:37:52;;;;;;;88.07;46.50;;;14.30;99.90;;;;;;5004860;28;20997;-55
2023/05/23 03:40:17;;;;;;;79.30;45.70;;;14.20;99.90;;;;;;5012296;28;20766;-56
2023/05/23 03:42:43;;;;;;;74.17;44.00;;;14.20;99.90;;;;;;5011117;28;20184;-55
2023/05/23 03:45:08;;;;;;;72.40;43.00;;;14.20;99.90;;;;;;5012092;28;20588;-55
2023/05/23 03:47:34;;;;;;;72.60;41.87;;;14.20;99.90;;;;;;5009018;28;20190;-56
2023/05/23 03:50:00;;;;;;;79.43;43.60;;;14.10;99.90;;;;;;5005308;28;20181;-55
2023/05/23 03:52:25;;;;;;;74.50;43.27;;;14.10;99.90;;;;;;5003627;28;20627;-56
2023/05/23 03:54:51;;;;;;;75.93;44.17;;;14.10;99.90;;;;;;5004826;28;20194;-56
2023/05/23 03:57:16;;;;;;;75.30;46.50;;;14.10;99.90;;;;;;5010567;28;20203;-55
2023/05/23 03:59:42;;;;;;;81.23;48.30;;;14.10;99.90;;;;;;5010576;28;20836;-56
2023/05/23 04:02:07;;;;;;;76.53;46.03;;;14.20;99.90;;;;;;5007542;28;20182;-55
2023/05/23 04:04:33;;;;;;;84.33;46.23;;;14.20;99.90;;;;;;5005341;28;20250;-55
2023/05/23 04:07:00;;;;;;;79.13;45.83;;;14.20;99.90;;;;;;5003776;28;20225;-55
2023/05/23 04:09:26;;;;;;;75.20;44.07;;;14.10;99.90;;;;;;5006147;28;20448;-56
2023/05/23 04:11:51;;;;;;;75.77;46.00;;;14.10;99.90;;;;;;5008828;28;20440;-56
2023/05/23 04:14:19;;;;;;;77.67;43.03;;;14.10;99.90;;;;;;5011303;28;20192;-56
2023/05/23 04:16:44;;;;;;;79.50;45.77;;;14.10;99.90;;;;;;5008707;28;20322;-56
2023/05/23 04:19:11;;;;;;;84.87;45.73;;;14.10;99.90;;;;;;5004914;28;20539;-55
2023/05/23 04:21:36;;;;;;;86.80;43.87;;;14.20;99.90;;;;;;5003002;28;20735;-56
2023/05/23 04:24:02;;;;;;;79.30;43.50;;;14.10;99.90;;;;;;5002538;28;20534;-55
2023/05/23 04:26:28;;;;;;;83.40;45.07;;;14.10;99.90;;;;;;5006128;28;20217;-54
2023/05/23 04:28:53;;;;;;;77.00;41.90;;;14.10;99.90;;;;;;5010342;28;20200;-57
2023/05/23 04:31:21;;;;;;;77.73;42.83;;;14.00;99.90;;;;;;5010061;28;20260;-54
2023/05/23 04:33:47;;;;;;;85.00;46.10;;;14.10;99.90;;;;;;5004272;28;20194;-55
2023/05/23 04:36:12;;;;;;;82.73;44.67;;;14.00;99.90;;;;;;5006236;28;20518;-55
2023/05/23 04:38:39;;;;;;;86.40;46.43;;;14.00;99.90;;;;;;5004705;28;20488;-56
2023/05/23 04:41:08;;;;;;;94.97;45.70;;;14.00;99.90;;;;;;4999153;28;20274;-55
2023/05/23 04:43:36;;;;;;;91.80;46.07;;;14.00;99.90;;;;;;5009494;28;20431;-54
2023/05/23 04:46:02;;;;;;;89.40;45.23;;;14.00;99.90;;;;;;5010508;28;20488;-56
2023/05/23 04:48:28;;;;;;;86.03;45.43;;;14.00;99.90;;;;;;5010499;28;20516;-55
2023/05/23 04:50:55;;;;;;;78.07;43.10;;;14.00;99.90;;;;;;5005949;28;20441;-55
2023/05/23 04:53:21;;;;;;;82.33;43.90;;;14.00;99.90;;;;;;5003721;28;20446;-55
2023/05/23 04:55:47;;;;;;;77.47;43.20;;;14.10;99.90;;;;;;5007726;28;20475;-55
2023/05/23 04:58:12;;;;;;;89.43;45.27;;;14.00;99.90;;;;;;5006433;28;20440;-55
2023/05/23 05:00:38;;;;;;;85.97;44.90;;;14.00;99.90;;;;;;5008688;28;20554;-54
2023/05/23 05:03:04;;;;;;;97.80;46.57;;;14.10;99.90;;;;;;5010387;28;20189;-55
2023/05/23 05:05:29;;;;;;;95.37;47.83;;;14.00;99.90;;;;;;5006930;28;20217;-55
2023/05/23 05:07:55;;;;;;;96.90;48.30;;;14.00;99.90;;;;;;5004762;28;20617;-54
2023/05/23 05:10:21;;;;;;;102.30;49.10;;;14.00;99.90;;;;;;5010658;28;20667;-54
2023/05/23 05:12:50;;;;;;;108.43;48.80;;;14.00;99.90;;;;;;5002919;28;20523;-55
2023/05/23 05:15:16;;;;;;;104.93;49.13;;;14.00;99.90;;;;;;5007797;28;20643;-55
2023/05/23 05:17:42;;;;;;;111.57;51.07;;;14.00;99.90;;;;;;5009937;28;20450;-55
2023/05/23 05:20:09;;;;;;;104.63;47.07;;;14.10;99.90;;;;;;5009262;28;21069;-55
2023/05/23 05:22:35;;;;;;;134.17;56.67;;;14.10;99.90;;;;;;5004829;28;20517;-54
2023/05/23 05:25:02;;;;;;;101.47;50.00;;;14.10;99.90;;;;;;5001178;28;20443;-55
2023/05/23 05:27:28;;;;;;;127.63;52.30;;;14.00;99.90;;;;;;4997191;28;20883;-54
2023/05/23 05:29:57;;;;;;;113.13;51.97;;;14.00;99.90;;;;;;5005110;28;20449;-55
2023/05/23 05:32:23;;;;;;;121.13;53.40;;;14.00;99.90;;;;;;5007906;28;20440;-55
2023/05/23 05:34:49;;;;;;;121.57;55.57;;;14.00;99.90;;;;;;5003257;28;20507;-54
2023/05/23 05:37:15;;;;;;;133.33;53.17;;;14.00;99.90;;;;;;5007618;28;20181;-54
2023/05/23 05:39:41;;;;;;;103.53;49.67;;;14.00;99.90;;;;;;5002831;28;20543;-54
2023/05/23 05:42:06;;;;;;;107.50;49.87;;;14.00;99.90;;;;;;5003772;28;20859;-55
2023/05/23 05:44:32;;;;;;;114.97;53.77;;;14.10;99.90;;;;;;4999141;28;20588;-55
2023/05/23 05:46:57;;;;;;;122.03;52.30;;;14.10;99.90;;;;;;5004870;28;20660;-55
2023/05/23 05:49:23;;;;;;;99.23;50.23;;;14.10;99.90;;;;;;5010579;28;20247;-55
2023/05/23 05:51:48;;;;;;;113.63;51.60;;;14.20;99.90;;;;;;5009068;28;20637;-55
2023/05/23 05:54:14;;;;;;;121.43;52.20;;;14.20;99.90;;;;;;5006007;28;20265;-56
2023/05/23 05:56:41;;;;;;;113.17;51.57;;;14.10;99.90;;;;;;5004750;28;20254;-55
2023/05/23 05:59:06;;;;;;;120.47;51.30;;;14.10;99.90;;;;;;5001723;28;20188;-53
2023/05/23 06:01:35;;;;;;;115.03;52.60;;;14.20;99.90;;;;;;5000072;28;20499;-55
2023/05/23 06:04:00;;;;;;;120.57;54.17;;;14.30;99.90;;;;;;5010191;28;20188;-56
2023/05/23 06:06:26;;;;;;;123.03;56.13;;;14.20;99.90;;;;;;5010498;28;20538;-55
2023/05/23 06:08:52;;;;;;;131.17;53.40;;;14.20;99.90;;;;;;5010056;28;20215;-55
2023/05/23 06:11:18;;;;;;;128.33;53.13;;;14.20;99.90;;;;;;5005003;28;20271;-55
2023/05/23 06:13:43;;;;;;;124.80;52.93;;;14.20;99.90;;;;;;5002775;28;20551;-56
2023/05/23 06:16:09;;;;;;;116.30;50.10;;;14.20;99.90;;;;;;5000957;28;20188;-55
2023/05/23 06:18:34;;;;;;;121.37;53.17;;;14.20;99.90;;;;;;4999356;28;20185;-55
2023/05/23 06:21:00;;;;;;;138.70;54.47;;;14.20;99.90;;;;;;5003688;28;20547;-56
2023/05/23 06:23:26;;;;;;;125.87;55.30;;;14.20;99.90;;;;;;5009750;28;20192;-55
2023/05/23 06:25:51;;;;;;;131.40;54.00;;;14.30;99.90;;;;;;5010669;28;20218;-54
2023/05/23 06:28:17;;;;;;;132.23;52.77;;;14.20;99.90;;;;;;5008691;28;20283;-54
2023/05/23 06:30:42;;;;;;;132.00;49.27;;;14.20;99.90;;;;;;5005325;28;20281;-55
2023/05/23 06:33:08;;;;;;;129.00;49.90;;;14.20;99.90;;;;;;4999975;28;20199;-55
2023/05/23 06:35:34;;;;;;;124.63;47.80;;;14.20;99.90;;;;;;5005585;28;20197;-55
2023/05/23 06:37:59;;;;;;;101.93;44.90;;;14.20;99.90;;;;;;5005328;28;20139;-55
2023/05/23 06:40:25;;;;;;;82.00;39.40;;;14.20;99.90;;;;;;5013186;28;20650;-55
2023/05/23 06:42:50;;;;;;;77.20;38.20;;;14.20;99.90;;;;;;5017363;28;20187;-55
2023/05/23 06:45:16;;;;;;;74.30;39.37;;;14.20;99.90;;;;;;5018493;28;20208;-55
2023/05/23 06:47:44;;;;;;;63.87;37.90;;;14.30;99.90;;;;;;5019457;28;20609;-54
2023/05/23 06:50:10;;;;;;;74.87;38.27;;;14.30;99.90;;;;;;5010890;28;20191;-54
2023/05/23 06:52:35;;;;;;;82.87;43.47;;;14.30;99.90;;;;;;5005228;28;20446;-55
2023/05/23 06:55:01;;;;;;;78.30;44.03;;;14.40;99.90;;;;;;4987026;28;20471;-55
2023/05/23 06:57:26;;;;;;;78.00;43.90;;;14.40;99.90;;;;;;5009903;28;20184;-55
2023/05/23 06:59:52;;;;;;;66.87;40.00;;;14.40;99.90;;;;;;5010277;28;20184;-56
2023/05/23 07:02:18;;;;;;;54.00;32.83;;;14.40;99.90;;;;;;5003349;28;20181;-53
2023/05/23 07:04:43;;;;;;;46.07;30.77;;;14.30;99.90;;;;;;5007948;28;20646;-55
2023/05/23 07:07:09;;;;;;;46.77;29.30;;;14.20;99.90;;;;;;5016231;28;20551;-55
2023/05/23 07:09:35;;;;;;;52.53;34.97;;;14.20;99.90;;;;;;5015784;28;20193;-54
2023/05/23 07:12:00;;;;;;;30.07;24.60;;;14.20;99.90;;;;;;5016388;28;20434;-53
2023/05/23 07:14:26;;;;;;;31.53;24.03;;;14.10;99.90;;;;;;5013339;28;20635;-56
2023/05/23 07:16:51;;;;;;;29.43;23.40;;;14.10;99.90;;;;;;5012752;28;20616;-55
2023/05/23 07:19:17;;;;;;;30.20;21.63;;;14.10;99.90;;;;;;5005073;28;20193;-55
2023/05/23 07:21:42;;;;;;;24.93;20.23;;;14.10;99.90;;;;;;5006216;28;20631;-55
2023/05/23 07:24:08;;;;;;;29.07;20.40;;;14.10;99.90;;;;;;5000879;28;20232;-55
2023/05/23 07:26:33;;;;;;;24.13;20.70;;;14.10;99.90;;;;;;5007168;28;20227;-57
2023/05/23 07:28:59;;;;;;;21.40;18.03;;;14.20;99.90;;;;;;5014306;28;20252;-58
2023/05/23 07:31:25;;;;;;;21.37;18.13;;;14.20;99.90;;;;;;5008502;28;20224;-56
2023/05/23 07:33:50;;;;;;;24.23;17.87;;;14.30;99.90;;;;;;5012439;28;20575;-56
2023/05/23 07:36:16;;;;;;;18.87;16.77;;;14.40;99.90;;;;;;5003632;28;20220;-56
2023/05/23 07:38:42;;;;;;;20.27;16.13;;;14.50;99.90;;;;;;5007739;28;20708;-56
2023/05/23 07:41:07;;;;;;;43.00;28.90;;;14.60;99.90;;;;;;5004720;28;20428;-55
2023/05/23 07:43:33;;;;;;;29.80;22.00;;;14.60;99.90;;;;;;5011160;28;20192;-57
2023/05/23 07:45:58;;;;;;;20.40;12.90;;;14.70;99.90;;;;;;5011992;28;20208;-57
2023/05/23 07:48:25;;;;;;;16.73;13.40;;;14.80;99.90;;;;;;5009034;28;20205;-58
2023/05/23 07:50:53;;;;;;;16.53;12.40;;;14.80;99.90;;;;;;5011515;28;20718;-58
2023/05/23 07:53:21;;;;;;;15.30;11.10;;;15.00;99.90;;;;;;5003710;28;20960;-58
2023/05/23 07:55:46;;;;;;;14.63;10.97;;;15.00;99.90;;;;;;5003752;28;21051;-58
2023/05/23 07:58:12;;;;;;;13.57;10.50;;;14.80;99.90;;;;;;5004299;28;20437;-57
2023/05/23 08:00:37;;;;;;;16.50;11.00;;;14.70;99.90;;;;;;5009276;28;20604;-58
2023/05/23 08:03:03;;;;;;;14.53;10.37;;;14.40;99.90;;;;;;5012445;28;20398;-58
2023/05/23 08:05:29;;;;;;;11.33;9.40;;;14.40;99.90;;;;;;5010036;28;20213;-58
2023/05/23 08:07:54;;;;;;;11.73;10.13;;;14.30;99.90;;;;;;5007587;28;20691;-57
2023/05/23 08:10:20;;;;;;;14.20;10.90;;;14.30;99.90;;;;;;5005150;28;20196;-58
2023/05/23 08:12:46;;;;;;;11.90;10.17;;;14.30;99.90;;;;;;5008447;28;20182;-58
2023/05/23 08:15:11;;;;;;;12.30;9.47;;;14.30;99.90;;;;;;5008382;28;20196;-57
2023/05/23 08:17:38;;;;;;;11.17;10.03;;;14.30;99.90;;;;;;5011919;28;20239;-61
2023/05/23 08:20:04;;;;;;;11.10;9.17;;;14.50;99.90;;;;;;5008534;28;20546;-58
2023/05/23 08:22:30;;;;;;;13.30;8.40;;;14.60;99.90;;;;;;5004882;28;20991;-58
2023/05/23 08:24:56;;;;;;;11.10;7.97;;;14.60;99.90;;;;;;5007876;28;20440;-57
2023/05/23 08:27:21;;;;;;;10.00;8.03;;;14.50;97.40;;;;;;5000735;28;20216;-58
2023/05/23 08:29:47;;;;;;;12.30;8.23;;;14.40;99.90;;;;;;5004934;28;20550;-56
2023/05/23 08:32:13;;;;;;;13.43;8.13;;;14.30;99.90;;;;;;5008366;28;20189;-59
2023/05/23 08:34:39;;;;;;;9.07;8.10;;;14.20;99.90;;;;;;5011304;28;20437;-57
2023/05/23 08:37:05;;;;;;;12.93;9.57;;;14.10;99.90;;;;;;5007837;28;20196;-55
2023/05/23 08:39:31;;;;;;;10.33;9.13;;;14.10;99.90;;;;;;5007019;28;20431;-58
2023/05/23 08:41:56;;;;;;;13.77;10.67;;;14.00;99.90;;;;;;5004759;28;20437;-54
2023/05/23 08:44:22;;;;;;;12.77;10.60;;;14.00;99.90;;;;;;5000535;28;20236;-57
2023/05/23 08:46:51;;;;;;;13.43;10.73;;;14.00;99.90;;;;;;5006068;28;20208;-57
2023/05/23 08:49:17;;;;;;;15.70;11.53;;;14.00;99.90;;;;;;5008434;28;20181;-56
2023/05/23 08:51:44;;;;;;;18.57;12.83;;;13.90;99.90;;;;;;5008136;28;20458;-56
2023/05/23 08:54:13;;;;;;;18.73;12.60;;;13.90;99.90;;;;;;5012668;28;20192;-55
2023/05/23 08:56:39;;;;;;;16.47;12.70;;;13.80;99.90;;;;;;5004415;28;20474;-56
2023/05/23 08:59:07;;;;;;;13.73;10.57;;;13.90;99.90;;;;;;5004045;28;20795;-53
2023/05/23 09:01:34;;;;;;;12.27;8.60;;;13.80;99.90;;;;;;5002137;28;20441;-55
2023/05/23 09:04:03;;;;;;;10.53;8.17;;;13.60;99.90;;;;;;5005075;28;20457;-55
2023/05/23 09:06:31;;;;;;;12.33;8.57;;;13.60;99.90;;;;;;5010403;28;20486;-58
2023/05/23 09:08:57;;;;;;;18.43;11.10;;;13.60;99.90;;;;;;5007670;28;20518;-55
2023/05/23 09:11:23;;;;;;;20.07;11.43;;;13.60;99.90;;;;;;5009203;28;20478;-55
2023/05/23 09:13:49;;;;;;;16.47;10.90;;;13.50;99.90;;;;;;5008275;28;20443;-57
2023/05/23 09:16:16;;;;;;;22.60;11.30;;;13.40;99.90;;;;;;5005532;28;20852;-57
2023/05/23 09:18:43;;;;;;;24.57;12.33;;;13.20;99.90;;;;;;5005668;28;20651;-54
2023/05/23 09:21:10;;;;;;;17.57;10.97;;;13.00;99.90;;;;;;5004981;28;20476;-56
2023/05/23 09:23:38;;;;;;;18.73;11.40;;;13.10;99.90;;;;;;5011108;28;20446;-54
2023/05/23 09:26:06;;;;;;;19.57;11.60;;;13.00;99.90;;;;;;5008077;28;20475;-57
2023/05/23 09:28:32;;;;;;;15.90;10.27;;;13.00;99.90;;;;;;5006755;28;20434;-56
2023/05/23 09:31:07;;;;;;;20.53;10.70;;;13.00;99.90;;;;;;5004818;28;20447;-56
2023/05/23 09:33:47;;;;;;;20.90;10.87;;;12.80;99.90;;;;;;4998408;28;20784;-56
2023/05/23 09:36:13;;;;;;;17.67;11.30;;;12.80;99.90;;;;;;5010391;28;20445;-57
2023/05/23 09:38:40;;;;;;;14.63;9.83;;;12.80;99.90;;;;;;5009814;28;20493;-55
2023/05/23 09:41:06;;;;;;;18.33;10.73;;;12.70;99.90;;;;;;5007919;28;20913;-56
2023/05/23 09:43:32;;;;;;;20.03;10.37;;;12.70;99.90;;;;;;5008332;28;20526;-54
2023/05/23 09:46:08;;;;;;;22.63;10.17;;;12.70;99.90;;;;;;5005659;28;20640;-56
2023/05/23 09:48:34;;;;;;;18.57;10.60;;;12.80;99.90;;;;;;5001369;28;20464;-54
2023/05/23 09:51:09;;;;;;;19.20;9.90;;;12.70;99.90;;;;;;5004751;28;20439;-55
2023/05/23 09:53:35;;;;;;;16.27;9.87;;;12.80;99.90;;;;;;5002946;28;20525;-56
2023/05/23 09:56:02;;;;;;;19.73;9.77;;;12.90;99.90;;;;;;5010466;28;20887;-54
2023/05/23 09:58:31;;;;;;;12.23;8.00;;;13.00;99.90;;;;;;5009178;28;20439;-54
2023/05/23 10:01:02;;;;;;;11.83;8.40;;;12.90;99.90;;;;;;5001578;28;20447;-56
2023/05/23 10:03:45;;;;;;;13.53;7.87;;;12.90;99.90;;;;;;5007420;28;20467;-57
2023/05/23 10:06:22;;;;;;;10.30;7.00;;;13.00;99.90;;;;;;5003986;28;20482;-55
2023/05/23 10:09:07;;;;;;;10.60;6.53;;;12.90;99.90;;;;;;5003185;28;20437;-55
2023/05/23 10:11:33;;;;;;;12.33;5.40;;;12.90;99.90;;;;;;5009967;28;20973;-55
2023/05/23 10:14:08;;;;;;;11.77;5.77;;;12.90;99.90;;;;;;5009482;28;20474;-57
2023/05/23 10:16:56;;;;;;;9.13;5.10;;;12.90;99.90;;;;;;5007118;28;20198;-54
2023/05/23 10:19:37;;;;;;;8.97;5.23;;;12.90;99.90;;;;;;5001444;28;20521;-55
2023/05/23 10:22:05;;;;;;;9.90;4.93;;;12.90;99.90;;;;;;5004672;28;20502;-56
2023/05/23 10:24:32;;;;;;;9.13;4.60;;;13.00;99.90;;;;;;5003900;28;20426;-57
2023/05/23 10:26:58;;;;;;;11.10;4.27;;;12.90;99.90;;;;;;5001140;28;20569;-58
2023/05/23 10:29:25;;;;;;;13.00;5.20;;;12.90;99.90;;;;;;5003746;28;20470;-56
2023/05/23 10:31:52;;;;;;;14.43;5.23;;;12.70;99.90;;;;;;5012036;28;20434;-57
2023/05/23 10:34:43;;;;;;;10.83;4.60;;;12.70;99.90;;;;;;5011391;28;20434;-57
2023/05/23 10:37:16;;;;;;;10.87;4.50;;;12.70;99.90;;;;;;5009318;28;20450;-58
2023/05/23 10:39:58;;;;;;;17.43;4.83;;;12.80;99.90;;;;;;5005261;28;20435;-58
2023/05/23 10:42:35;;;;;;;12.97;4.40;;;12.80;99.90;;;;;;5009071;28;20447;-59
2023/05/23 10:45:20;;;;;;;9.10;4.30;;;12.80;99.90;;;;;;5010381;28;20488;-57
2023/05/23 10:47:47;;;;;;;11.90;4.73;;;12.90;99.90;;;;;;5011594;28;20454;-57
2023/05/23 10:50:15;;;;;;;17.97;4.20;;;12.80;99.90;;;;;;5012751;28;20436;-57
2023/05/23 10:52:42;;;;;;;10.97;4.13;;;12.90;99.90;;;;;;5009436;28;20439;-56
2023/05/23 10:55:16;;;;;;;12.13;4.33;;;12.90;99.90;;;;;;5002874;28;20475;-58
2023/05/23 10:57:43;;;;;;;11.70;5.43;;;12.80;1.00;;;;;;5007102;28;23126;-58
2023/05/23 11:00:14;;;;;;;7.60;4.57;;;12.90;1.30;;;;;;5007111;28;20447;-58
2023/05/23 11:02:53;;;;;;;16.03;5.17;;;13.00;1.00;;;;;;5011776;28;20440;-60
2023/05/23 11:05:22;;;;;;;9.40;5.00;;;13.20;1.00;;;;;;5011675;28;20442;-57
2023/05/23 11:08:08;;;;;;;16.37;5.07;;;13.60;1.00;;;;;;5013171;28;20453;-59
2023/05/23 11:10:58;;;;;;;14.80;4.33;;;14.20;99.90;;;;;;5009339;28;20443;-59
2023/05/23 11:13:24;;;;;;;15.67;5.00;;;14.60;99.90;;;;;;5013616;28;20495;-57
2023/05/23 11:15:50;;;;;;;10.80;5.40;;;14.70;99.90;;;;;;5016080;28;20486;-58
2023/05/23 11:18:25;;;;;;;12.50;5.07;;;14.70;1.00;;;;;;5004463;28;20442;-58
2023/05/23 11:20:54;;;;;;;11.80;4.70;;;14.40;99.90;;;;;;5010506;28;20245;-59
2023/05/23 11:23:20;;;;;;;16.27;4.97;;;14.40;1.00;;;;;;5006819;28;20978;-58
2023/05/23 11:25:52;;;;;;;15.00;4.87;;;14.80;1.00;;;;;;5005761;28;20491;-60
2023/05/23 11:28:18;;;;;;;9.70;4.50;;;15.40;1.00;;;;;;5005803;28;20460;-59
2023/05/23 11:30:47;;;;;;;10.80;4.50;;;15.80;1.00;;;;;;5010057;28;20443;-59
2023/05/23 11:33:15;;;;;;;20.90;5.20;;;15.90;1.00;;;;;;5011937;28;20843;-59
2023/05/23 11:35:42;;;;;;;13.00;4.53;;;15.60;1.00;;;;;;5010873;28;20533;-58
2023/05/23 11:38:08;;;;;;;17.80;5.13;;;15.50;1.00;;;;;;5011050;28;20447;-59
2023/05/23 11:40:36;;;;;;;20.37;5.13;;;15.50;1.00;;;;;;5011420;28;20578;-59
2023/05/23 11:43:09;;;;;;;13.70;4.80;;;15.60;1.00;;;;;;5011242;28;20538;-60
2023/05/23 11:45:37;;;;;;;7.70;4.13;;;15.60;1.00;;;;;;5009317;28;20478;-59
2023/05/23 11:48:11;;;;;;;19.90;3.93;;;15.50;1.00;;;;;;5004418;28;20455;-59
2023/05/23 11:51:03;;;;;;;13.17;4.10;;;15.50;1.00;;;;;;5006979;28;20448;-59
2023/05/23 11:53:29;;;;;;;15.53;4.80;;;15.70;1.00;;;;;;5009963;28;20467;-56
2023/05/23 11:55:59;;;;;;;11.60;5.30;;;15.90;1.00;;;;;;5007976;28;20530;-59
2023/05/23 11:58:30;;;;;;;17.57;5.10;;;16.10;1.00;;;;;;5007154;28;20947;-58
2023/05/23 12:01:06;;;;;;;15.20;5.30;;;16.20;1.00;;;;;;5006705;28;20440;-59
2023/05/23 12:03:48;;;;;;;18.17;4.87;;;16.00;1.00;;;;;;5003143;28;20532;-59
2023/05/23 12:06:15;;;;;;;24.70;4.93;;;16.30;1.00;;;;;;5004937;28;20482;-59
2023/05/23 12:08:41;;;;;;;11.83;4.20;;;16.60;1.00;;;;;;5011710;28;20446;-56
2023/05/23 12:11:06;;;;;;;11.43;4.83;;;16.50;1.00;;;;;;5008643;28;20503;-59
2023/05/23 12:13:32;;;;;;;20.07;5.47;;;16.70;1.00;;;;;;5008022;28;20186;-59
2023/05/23 12:15:59;;;;;;;21.20;4.63;;;16.70;1.00;;;;;;5007370;28;20551;-60
2023/05/23 12:18:30;;;;;;;15.23;4.63;;;16.80;1.00;;;;;;5005265;28;20193;-61
2023/05/23 12:21:00;;;;;;;13.17;4.17;;;17.10;1.00;;;;;;5003046;28;20469;-59
2023/05/23 12:23:27;;;;;;;12.30;4.63;;;16.80;1.00;;;;;;5007796;28;20446;-58
2023/05/23 12:25:54;;;;;;;13.07;4.60;;;16.60;1.00;;;;;;5007930;28;20496;-58
2023/05/23 12:28:32;;;;;;;16.60;4.70;;;16.60;1.00;;;;;;5010315;28;20468;-60
2023/05/23 12:30:58;;;;;;;15.27;4.33;;;16.70;1.00;;;;;;5010133;28;20520;-57
2023/05/23 12:33:24;;;;;;;14.97;3.83;;;16.80;1.00;;;;;;5006288;28;20530;-60